Time;durP1;ratioP1;P1;durP2;ratioP2;P2;SDS_P1;SDS_P2;PMS_P1;PMS_P2;Temp;Humidity;BMP_temperature;BMP_pressure;BME280_temperature;BME280_humidity;BME280_pressure;Samples;Min_cycle;Max_cycle;Signal;HPM_P1;HPM_P2
2022/10/10 00:00:35;;;;;;;25.08;13.43;;;;;;;12.06;71.06;95537.13;5070546;28;20021;-72
2022/10/10 00:03:01;;;;;;;14.52;11.93;;;;;;;12.05;70.97;95545.88;5070654;28;20451;-72
2022/10/10 00:05:26;;;;;;;13.35;11.77;;;;;;;12.04;70.94;95543.41;5071613;28;20024;-72
2022/10/10 00:07:51;;;;;;;13.65;11.88;;;;;;;12.04;70.93;95541.63;5058778;28;20037;-73
2022/10/10 00:10:17;;;;;;;12.90;11.68;;;;;;;12.01;71.10;95541.84;5051265;28;20029;-72
2022/10/10 00:12:42;;;;;;;15.68;12.23;;;;;;;11.94;71.31;95540.66;5053200;28;20033;-72
2022/10/10 00:15:08;;;;;;;13.13;11.75;;;;;;;11.93;71.48;95541.63;5053051;28;20410;-72
2022/10/10 00:17:34;;;;;;;14.02;12.07;;;;;;;11.90;71.33;95554.06;5033656;28;20041;-72
2022/10/10 00:19:59;;;;;;;17.98;12.48;;;;;;;11.82;71.73;95536.38;5052577;28;20082;-72
2022/10/10 00:22:25;;;;;;;13.18;11.88;;;;;;;11.82;71.54;95538.97;5049589;28;20048;-72
2022/10/10 00:24:50;;;;;;;14.25;12.70;;;;;;;11.76;72.00;95542.06;5049932;28;20458;-72
2022/10/10 00:27:16;;;;;;;13.98;12.57;;;;;;;11.68;72.15;95532.22;5050933;28;20040;-72
2022/10/10 00:29:41;;;;;;;14.23;12.25;;;;;;;11.69;72.28;95533.84;5033474;28;20033;-72
2022/10/10 00:32:07;;;;;;;13.45;12.15;;;;;;;11.68;72.13;95528.78;5051204;28;20064;-72
2022/10/10 00:34:32;;;;;;;13.57;12.18;;;;;;;11.75;71.94;95527.34;5033494;28;20082;-72
2022/10/10 00:36:58;;;;;;;13.32;12.00;;;;;;;11.65;72.12;95542.84;5034287;28;20427;-72
2022/10/10 00:39:23;;;;;;;13.95;12.50;;;;;;;11.67;72.12;95535.75;5051047;28;20036;-72
2022/10/10 00:41:48;;;;;;;13.50;12.10;;;;;;;11.59;71.96;95519.91;5049799;28;20028;-72
2022/10/10 00:44:14;;;;;;;13.95;12.45;;;;;;;11.67;71.95;95529.72;5066778;28;20032;-72
2022/10/10 00:46:39;;;;;;;13.25;11.95;;;;;;;11.66;72.04;95528.88;5069601;28;20028;-72
2022/10/10 00:49:13;;;;;;;14.90;12.20;;;;;;;11.67;72.05;95542.72;5053149;28;20154;-72
2022/10/10 00:51:38;;;;;;;13.63;12.23;;;;;;;11.68;71.87;95528.78;5067797;28;20514;-73
2022/10/10 00:54:06;;;;;;;13.93;12.30;;;;;;;11.71;71.75;95536.34;5033176;28;20036;-72
2022/10/10 00:56:44;;;;;;;14.55;12.35;;;;;;;11.72;71.96;95532.81;5033228;28;20036;-72
2022/10/10 00:59:11;;;;;;;14.18;12.75;;;;;;;11.74;71.95;95541.31;5046303;28;20036;-72
2022/10/10 01:01:39;;;;;;;12.80;11.55;;;;;;;11.75;71.66;95542.97;5053101;28;20033;-72
2022/10/10 01:04:05;;;;;;;13.52;12.13;;;;;;;11.71;71.65;95539.78;5069583;28;20510;-72
2022/10/10 01:06:31;;;;;;;13.60;12.20;;;;;;;11.72;71.44;95541.44;5067384;28;20029;-72
2022/10/10 01:08:57;;;;;;;13.75;12.25;;;;;;;11.76;71.18;95545.47;5049734;28;20068;-72
2022/10/10 01:11:50;;;;;;;13.95;12.45;;;;;;;11.60;71.84;95534.56;5016387;28;20036;-72
2022/10/10 01:14:25;;;;;;;12.88;11.57;;;;;;;11.63;71.94;95560.34;5043057;28;20048;-72
2022/10/10 01:16:50;;;;;;;14.38;12.57;;;;;;;11.61;72.15;95552.66;5069327;28;20032;-72
2022/10/10 01:19:34;;;;;;;12.85;11.63;;;;;;;11.61;72.08;95557.84;5063875;28;20537;-72
2022/10/10 01:22:23;;;;;;;13.80;11.68;;;;;;;11.60;72.09;95558.81;5050572;28;20039;-72
2022/10/10 01:25:11;;;;;;;12.93;11.63;;;;;;;11.58;72.00;95558.09;5049338;28;20046;-72
2022/10/10 01:27:50;;;;;;;12.82;11.32;;;;;;;11.55;71.86;95557.50;5049391;28;20041;-72
2022/10/10 01:30:18;;;;;;;15.70;11.85;;;;;;;11.50;72.00;95560.44;5050535;28;20024;-72
2022/10/10 01:32:53;;;;;;;13.80;12.13;;;;;;;11.47;72.38;95563.25;5070767;28;20029;-72
2022/10/10 01:35:40;;;;;;;13.13;11.73;;;;;;;11.49;71.91;95558.78;5069272;28;20047;-72
2022/10/10 01:38:08;;;;;;;13.30;11.98;;;;;;;11.49;71.97;95561.38;5068707;28;20475;-72
2022/10/10 01:40:43;;;;;;;13.60;12.00;;;;;;;11.49;71.83;95565.75;5074398;28;20035;-72
2022/10/10 01:43:08;;;;;;;13.10;11.70;;;;;;;11.41;72.28;95563.72;5073084;28;20057;-72
2022/10/10 01:45:34;;;;;;;14.52;12.10;;;;;;;11.40;72.12;95554.28;5037062;28;20086;-72
2022/10/10 01:48:01;;;;;;;13.77;11.90;;;;;;;11.32;72.24;95551.41;5054027;28;20114;-72
2022/10/10 01:50:27;;;;;;;14.27;11.63;;;;;;;11.37;72.26;95554.50;5036601;28;20032;-72
2022/10/10 01:53:34;;;;;;;13.18;11.85;;;;;;;11.37;71.96;95552.72;5020076;28;20499;-72
2022/10/10 01:56:09;;;;;;;13.05;11.13;;;;;;;11.30;72.38;95548.09;5056515;28;20430;-72
2022/10/10 01:58:49;;;;;;;13.13;11.23;;;;;;;11.30;72.22;95548.09;5071366;28;20067;-72
2022/10/10 02:01:24;;;;;;;14.07;12.33;;;;;;;11.28;72.28;95550.81;5072810;28;20115;-72
2022/10/10 02:03:54;;;;;;;14.55;13.05;;;;;;;11.23;72.37;95545.13;5074524;28;20086;-72
2022/10/10 02:06:23;;;;;;;13.23;11.82;;;;;;;11.25;72.21;95552.78;5052267;28;20039;-72
2022/10/10 02:08:57;;;;;;;13.48;11.43;;;;;;;11.22;72.25;95553.03;5052955;28;20056;-72
2022/10/10 02:11:23;;;;;;;14.20;12.10;;;;;;;11.22;72.21;95553.03;5036273;28;20090;-72
2022/10/10 02:13:56;;;;;;;12.95;11.65;;;;;;;11.25;72.02;95551.00;5051224;28;20036;-72
2022/10/10 02:16:25;;;;;;;14.05;11.25;;;;;;;11.18;72.07;95540.25;5047023;28;20110;-72
2022/10/10 02:18:50;;;;;;;12.60;11.23;;;;;;;11.22;72.24;95560.81;5036158;28;20047;-72
2022/10/10 02:21:16;;;;;;;12.70;11.40;;;;;;;11.25;71.99;95558.00;5056769;28;20024;-73
2022/10/10 02:23:42;;;;;;;15.38;12.27;;;;;;;11.19;72.06;95562.69;5055981;28;20044;-72
2022/10/10 02:26:08;;;;;;;12.50;10.60;;;;;;;11.16;72.16;95562.94;5072241;28;20029;-72
2022/10/10 02:28:38;;;;;;;12.93;11.60;;;;;;;11.16;71.98;95562.94;5054114;28;20028;-72
2022/10/10 02:31:10;;;;;;;14.25;11.10;;;;;;;11.16;72.23;95565.53;5054206;28;20300;-72
2022/10/10 02:33:41;;;;;;;13.52;11.40;;;;;;;11.17;72.12;95567.22;5039252;28;20131;-72
2022/10/10 02:36:06;;;;;;;13.13;11.38;;;;;;;11.18;72.07;95568.84;5054163;28;20105;-72
2022/10/10 02:38:32;;;;;;;11.80;10.65;;;;;;;11.17;72.19;95567.22;5035792;28;20029;-72
2022/10/10 02:40:57;;;;;;;16.67;11.55;;;;;;;11.16;72.02;95562.09;5052101;28;20033;-72
2022/10/10 02:43:23;;;;;;;13.90;11.25;;;;;;;11.12;72.14;95566.72;5036439;28;20037;-73
2022/10/10 02:45:48;;;;;;;13.93;11.40;;;;;;;11.09;72.41;95572.13;5035311;28;20395;-72
2022/10/10 02:48:14;;;;;;;12.75;11.45;;;;;;;11.06;72.19;95561.09;5035215;28;20044;-72
2022/10/10 02:50:39;;;;;;;13.18;11.20;;;;;;;11.12;72.23;95573.69;5036399;28;20044;-73
2022/10/10 02:53:04;;;;;;;12.68;11.38;;;;;;;11.14;72.02;95564.84;5035266;28;20045;-72
2022/10/10 02:55:30;;;;;;;12.40;11.10;;;;;;;11.14;72.12;95562.22;5035335;28;20621;-72
2022/10/10 02:57:55;;;;;;;13.05;11.55;;;;;;;11.10;72.19;95554.75;5036156;28;20428;-72
2022/10/10 03:00:21;;;;;;;13.00;11.70;;;;;;;11.03;72.09;95554.38;5051728;28;20388;-72
2022/10/10 03:02:46;;;;;;;12.52;11.07;;;;;;;11.08;72.33;95564.44;5035218;28;20044;-72
2022/10/10 03:05:12;;;;;;;12.02;10.73;;;;;;;11.07;72.51;95562.78;5059949;28;20109;-72
2022/10/10 03:07:37;;;;;;;12.80;11.32;;;;;;;11.06;72.25;95559.38;5071872;28;20046;-72
2022/10/10 03:10:06;;;;;;;13.68;11.23;;;;;;;11.04;72.21;95565.63;5054808;28;20086;-72
2022/10/10 03:12:32;;;;;;;13.27;11.65;;;;;;;11.03;72.14;95564.78;5069675;28;20094;-72
2022/10/10 03:14:58;;;;;;;12.75;11.45;;;;;;;11.01;72.06;95558.88;5054970;28;20024;-72
2022/10/10 03:17:23;;;;;;;13.85;11.80;;;;;;;11.00;72.16;95564.97;5054695;28;20044;-72
2022/10/10 03:19:48;;;;;;;12.88;11.35;;;;;;;10.96;72.37;95568.75;5072239;28;20036;-72
2022/10/10 03:22:14;;;;;;;14.38;12.32;;;;;;;10.98;72.39;95564.28;5051339;28;20526;-72
2022/10/10 03:24:39;;;;;;;12.98;11.57;;;;;;;10.96;72.18;95577.38;5051359;28;20417;-72
2022/10/10 03:27:05;;;;;;;12.57;11.18;;;;;;;10.98;72.09;95574.69;5051923;28;20041;-72
2022/10/10 03:29:30;;;;;;;12.35;11.10;;;;;;;10.97;72.13;95573.00;5053583;28;20039;-72
2022/10/10 03:31:56;;;;;;;12.60;11.25;;;;;;;10.92;72.14;95582.91;5034514;28;20048;-72
2022/10/10 03:34:21;;;;;;;12.10;10.90;;;;;;;10.87;72.08;95582.44;5034345;28;20415;-72
2022/10/10 03:36:47;;;;;;;13.43;10.88;;;;;;;10.81;72.36;95578.50;5050949;28;20052;-73
2022/10/10 03:39:12;;;;;;;15.27;11.15;;;;;;;10.82;72.20;95574.94;5067717;28;20514;-72
2022/10/10 03:41:37;;;;;;;13.45;11.20;;;;;;;10.76;72.51;95580.59;5062272;28;20048;-72
2022/10/10 03:44:03;;;;;;;12.70;10.85;;;;;;;10.62;72.81;95563.38;5065683;28;20517;-72
2022/10/10 03:46:28;;;;;;;11.55;10.27;;;;;;;10.64;72.84;95574.50;5053597;28;20036;-72
2022/10/10 03:48:54;;;;;;;13.95;10.65;;;;;;;10.60;73.09;95573.06;5052552;28;20028;-72
2022/10/10 03:51:19;;;;;;;12.63;11.32;;;;;;;10.55;73.02;95567.34;5034200;28;20040;-72
2022/10/10 03:53:45;;;;;;;12.30;11.00;;;;;;;10.60;73.02;95580.03;5034345;28;20033;-72
2022/10/10 03:56:10;;;;;;;12.30;11.00;;;;;;;10.56;73.17;95574.22;5051457;28;20029;-72
2022/10/10 03:58:36;;;;;;;12.70;11.13;;;;;;;10.51;73.09;95578.91;5054309;28;20039;-72
2022/10/10 04:01:02;;;;;;;13.55;10.90;;;;;;;10.46;73.26;95570.59;5069606;28;20033;-72
2022/10/10 04:03:27;;;;;;;12.27;10.73;;;;;;;10.51;73.00;95579.72;5037543;28;20482;-72
2022/10/10 04:05:53;;;;;;;12.93;11.10;;;;;;;10.53;73.05;95579.63;5069800;28;20028;-72
2022/10/10 04:08:18;;;;;;;12.95;10.38;;;;;;;10.51;73.05;95581.50;5071917;28;20518;-72
2022/10/10 04:10:47;;;;;;;12.43;11.00;;;;;;;10.51;73.07;95582.31;5053624;28;20020;-72
2022/10/10 04:13:12;;;;;;;12.15;10.68;;;;;;;10.41;73.09;95575.28;5053962;28;20446;-72
2022/10/10 04:15:38;;;;;;;12.40;10.65;;;;;;;10.48;72.91;95581.72;5068749;28;20025;-72
2022/10/10 04:18:03;;;;;;;12.00;10.70;;;;;;;10.40;73.11;95582.25;5053715;28;20456;-72
2022/10/10 04:20:29;;;;;;;12.95;11.05;;;;;;;10.42;73.11;95582.13;5070092;28;20027;-72
2022/10/10 04:22:54;;;;;;;11.35;9.82;;;;;;;10.44;72.95;95585.44;5070415;28;20037;-72
2022/10/10 04:25:20;;;;;;;13.05;10.77;;;;;;;10.41;73.05;95593.47;5069889;28;20033;-72
2022/10/10 04:27:45;;;;;;;12.95;11.27;;;;;;;10.40;73.21;95587.44;5036774;28;20494;-72
2022/10/10 04:30:11;;;;;;;11.63;10.43;;;;;;;10.38;73.31;95584.13;5053431;28;20031;-72
2022/10/10 04:32:37;;;;;;;12.50;10.55;;;;;;;10.39;72.96;95588.41;5036755;28;20039;-72
2022/10/10 04:35:03;;;;;;;13.27;10.88;;;;;;;10.35;72.99;95586.09;5052576;28;20032;-72
2022/10/10 04:37:28;;;;;;;11.93;10.68;;;;;;;10.21;73.13;95576.66;5069225;28;20056;-72
2022/10/10 04:39:54;;;;;;;12.35;10.60;;;;;;;10.32;73.04;95583.72;5049978;28;20098;-72
2022/10/10 04:42:19;;;;;;;13.57;11.20;;;;;;;10.22;73.19;95575.69;5051090;28;20450;-72
2022/10/10 04:44:45;;;;;;;13.38;11.93;;;;;;;10.19;73.66;95597.50;5016805;28;20032;-72
2022/10/10 04:47:12;;;;;;;15.55;12.57;;;;;;;10.15;72.92;95588.28;5032857;28;20494;-72
2022/10/10 04:49:37;;;;;;;18.08;13.80;;;;;;;10.11;73.37;95599.78;5033487;28;20086;-72
2022/10/10 04:52:03;;;;;;;13.43;11.65;;;;;;;10.14;73.83;95594.41;5049635;28;20040;-72
2022/10/10 04:54:28;;;;;;;11.80;10.60;;;;;;;10.12;73.70;95598.88;5050950;28;20473;-72
2022/10/10 04:56:54;;;;;;;14.35;10.05;;;;;;;10.14;73.43;95589.22;5033077;28;20099;-72
2022/10/10 04:59:19;;;;;;;11.88;10.30;;;;;;;10.20;73.42;95594.00;5053751;28;20043;-72
2022/10/10 05:01:45;;;;;;;12.73;10.10;;;;;;;10.17;73.53;95586.41;5069451;28;20029;-72
2022/10/10 05:04:11;;;;;;;11.35;10.15;;;;;;;10.07;73.73;95577.59;5052855;28;20048;-72
2022/10/10 05:06:37;;;;;;;12.50;10.60;;;;;;;10.15;73.64;95588.28;5053034;28;20411;-72
2022/10/10 05:09:02;;;;;;;12.30;10.13;;;;;;;10.17;73.86;95599.41;5069455;28;20032;-72
2022/10/10 05:11:28;;;;;;;14.43;9.98;;;;;;;10.20;73.62;95588.81;5068660;28;20467;-72
2022/10/10 05:13:53;;;;;;;11.18;9.60;;;;;;;10.34;73.04;95610.44;5070986;28;20495;-72
2022/10/10 05:16:19;;;;;;;11.68;9.80;;;;;;;10.36;73.14;95613.72;5052753;28;20025;-72
2022/10/10 05:18:44;;;;;;;12.98;10.57;;;;;;;10.38;73.00;95610.09;5070677;28;20051;-73
2022/10/10 05:21:10;;;;;;;12.27;10.50;;;;;;;10.43;73.04;95608.00;5069559;28;20406;-72
2022/10/10 05:23:37;;;;;;;16.13;12.95;;;;;;;10.45;73.63;95616.53;5071105;28;20028;-72
2022/10/10 05:26:02;;;;;;;17.85;15.13;;;;;;;10.52;73.84;95620.34;5036222;28;20506;-72
2022/10/10 05:28:28;;;;;;;24.75;19.73;;;;;;;10.60;73.46;95624.19;5052791;28;20123;-72
2022/10/10 05:30:53;;;;;;;19.13;14.40;;;;;;;10.49;73.43;95615.38;5069279;28;20025;-72
2022/10/10 05:33:19;;;;;;;19.35;13.95;;;;;;;10.50;73.50;95629.19;5052818;28;20041;-73
2022/10/10 05:35:44;;;;;;;15.75;14.00;;;;;;;10.41;73.67;95622.03;5035843;28;20226;-72
2022/10/10 05:38:09;;;;;;;19.40;14.10;;;;;;;10.45;73.90;95633.88;5049346;28;20052;-72
2022/10/10 05:40:38;;;;;;;16.30;14.43;;;;;;;10.54;73.46;95633.25;5049399;28;20107;-72
2022/10/10 05:43:04;;;;;;;16.80;14.18;;;;;;;10.50;73.70;95637.81;5032499;28;20120;-72
2022/10/10 05:45:29;;;;;;;18.92;14.00;;;;;;;10.51;73.79;95642.06;5052504;28;20532;-72
2022/10/10 05:47:54;;;;;;;15.02;13.43;;;;;;;10.42;73.58;95637.53;5045806;28;20271;-72
2022/10/10 05:50:33;;;;;;;15.38;13.60;;;;;;;10.35;73.92;95649.25;5050313;28;20029;-72
2022/10/10 05:52:58;;;;;;;20.88;15.95;;;;;;;10.27;74.60;95636.78;5036637;28;20036;-73
2022/10/10 05:55:24;;;;;;;14.80;13.20;;;;;;;10.34;74.79;95641.59;5069123;28;20052;-72
2022/10/10 05:57:49;;;;;;;14.20;12.73;;;;;;;10.43;74.53;95638.34;5052378;28;20036;-72
2022/10/10 06:00:15;;;;;;;15.13;13.48;;;;;;;10.59;74.15;95641.56;5052264;28;20029;-72
2022/10/10 06:02:41;;;;;;;16.58;14.07;;;;;;;11.28;72.52;95643.59;5052674;28;20036;-72
2022/10/10 06:05:07;;;;;;;15.13;12.43;;;;;;;11.99;69.55;95647.91;5052266;28;20035;-72
2022/10/10 06:07:33;;;;;;;18.00;14.25;;;;;;;12.08;68.50;95631.56;5062925;28;20131;-72
2022/10/10 06:09:58;;;;;;;15.20;13.60;;;;;;;12.34;67.89;95634.00;5045859;28;20032;-72
2022/10/10 06:12:24;;;;;;;17.77;14.82;;;;;;;12.56;67.18;95640.94;5052125;28;20487;-72
2022/10/10 06:14:49;;;;;;;19.92;15.55;;;;;;;12.83;66.14;95651.00;5050189;28;20112;-72
2022/10/10 06:17:15;;;;;;;17.08;14.07;;;;;;;12.97;65.94;95648.13;5050139;28;20036;-72
2022/10/10 06:19:40;;;;;;;17.40;13.18;;;;;;;13.22;65.37;95656.63;5032382;28;20498;-72
2022/10/10 06:22:05;;;;;;;17.63;14.82;;;;;;;13.47;64.94;95652.91;5048779;28;20033;-73
2022/10/10 06:24:31;;;;;;;15.43;13.82;;;;;;;14.05;63.32;95645.50;5052952;28;20029;-73
2022/10/10 06:26:56;;;;;;;19.20;14.55;;;;;;;14.37;61.71;95654.19;5071767;28;20024;-73
2022/10/10 06:29:22;;;;;;;19.58;14.18;;;;;;;14.89;59.90;95657.63;5070688;28;20032;-72
2022/10/10 06:31:47;;;;;;;18.27;13.23;;;;;;;15.40;58.25;95649.59;5052298;28;20036;-73
2022/10/10 06:34:13;;;;;;;16.10;12.95;;;;;;;16.01;56.81;95658.16;5052338;28;20052;-73
2022/10/10 06:36:38;;;;;;;19.17;13.18;;;;;;;16.41;55.53;95650.09;5053283;28;20053;-73
2022/10/10 06:39:04;;;;;;;20.90;13.43;;;;;;;16.67;54.68;95652.06;5057839;28;20066;-73
2022/10/10 06:41:29;;;;;;;14.25;12.85;;;;;;;16.79;54.78;95650.94;5054262;28;20029;-73
2022/10/10 06:43:55;;;;;;;21.65;13.20;;;;;;;16.73;54.50;95660.19;5039868;28;20039;-73
2022/10/10 06:46:20;;;;;;;17.17;13.82;;;;;;;16.87;54.05;95656.28;5043094;28;20072;-73
2022/10/10 06:48:46;;;;;;;14.57;13.10;;;;;;;16.68;54.29;95657.16;5035910;28;20047;-73
2022/10/10 06:51:15;;;;;;;17.52;13.57;;;;;;;16.97;54.04;95666.75;5049551;28;20029;-73
2022/10/10 06:53:41;;;;;;;17.42;13.35;;;;;;;17.20;53.34;95656.69;5045497;28;20033;-73
2022/10/10 06:56:07;;;;;;;19.05;14.45;;;;;;;17.17;53.13;95667.47;5037398;28;20055;-72
2022/10/10 06:58:32;;;;;;;17.58;14.45;;;;;;;17.09;53.75;95662.94;5044844;28;20041;-72
2022/10/10 07:01:02;;;;;;;18.10;14.20;;;;;;;17.10;53.96;95663.78;5047153;28;20425;-71
2022/10/10 07:03:28;;;;;;;16.30;14.50;;;;;;;17.35;53.73;95665.69;5051273;28;20503;-72
2022/10/10 07:05:55;;;;;;;16.52;14.38;;;;;;;17.49;52.95;95651.22;5034568;28;20025;-72
2022/10/10 07:08:22;;;;;;;21.55;13.95;;;;;;;17.56;52.46;95661.97;5051714;28;20032;-72
2022/10/10 07:10:47;;;;;;;19.15;14.35;;;;;;;17.53;52.46;95647.34;5071848;28;20020;-72
2022/10/10 07:13:13;;;;;;;18.40;14.32;;;;;;;17.46;53.30;95659.41;5054986;28;20487;-72
2022/10/10 07:15:38;;;;;;;19.80;13.88;;;;;;;17.59;53.03;95659.88;5038155;28;20402;-72
2022/10/10 07:18:05;;;;;;;16.92;13.75;;;;;;;17.70;52.89;95666.69;5054771;28;20036;-73
2022/10/10 07:20:30;;;;;;;20.70;14.77;;;;;;;17.65;52.80;95661.06;5038283;28;20060;-72
2022/10/10 07:22:56;;;;;;;17.80;13.88;;;;;;;17.65;52.51;95661.06;5071668;28;20040;-73
2022/10/10 07:25:21;;;;;;;21.40;14.23;;;;;;;17.63;53.17;95661.22;5071334;28;20419;-73
2022/10/10 07:27:47;;;;;;;15.93;14.23;;;;;;;17.65;53.45;95650.56;5071365;28;20087;-72
2022/10/10 07:30:12;;;;;;;18.35;14.70;;;;;;;17.80;52.60;95654.34;5071298;28;20025;-72
2022/10/10 07:32:38;;;;;;;18.65;13.75;;;;;;;17.82;52.41;95649.75;5054555;28;20541;-73
2022/10/10 07:35:03;;;;;;;15.70;13.82;;;;;;;17.91;52.74;95663.78;5053554;28;20033;-72
2022/10/10 07:37:29;;;;;;;21.83;14.43;;;;;;;17.85;52.58;95649.44;5072392;28;20048;-73
2022/10/10 07:39:54;;;;;;;17.23;13.50;;;;;;;17.89;53.04;95655.25;5054538;28;20024;-73
2022/10/10 07:42:20;;;;;;;20.50;12.77;;;;;;;17.95;52.19;95645.94;5070877;28;20059;-73
2022/10/10 07:44:45;;;;;;;15.20;12.55;;;;;;;18.07;52.05;95650.78;5072190;28;20029;-73
2022/10/10 07:47:11;;;;;;;17.05;14.27;;;;;;;17.93;52.91;95640.81;5037332;28;20070;-72
2022/10/10 07:49:36;;;;;;;18.77;13.90;;;;;;;17.97;53.54;95628.19;5054582;28;20039;-73
2022/10/10 07:52:02;;;;;;;20.85;12.55;;;;;;;18.06;53.21;95653.56;5054323;28;20447;-73
2022/10/10 07:54:28;;;;;;;9.27;7.63;;;;;;;17.88;50.05;95642.25;5037482;28;20027;-73
2022/10/10 07:56:54;;;;;;;6.63;5.20;;;;;;;17.83;48.17;95640.91;5072130;28;20245;-73
2022/10/10 07:59:19;;;;;;;16.10;10.88;;;;;;;17.76;51.48;95642.44;5070631;28;20475;-73
2022/10/10 08:01:44;;;;;;;19.80;14.68;;;;;;;17.83;52.22;95640.91;5053739;28;20391;-72
2022/10/10 08:04:10;;;;;;;25.00;17.88;;;;;;;17.79;52.75;95638.72;5071775;28;20544;-73
2022/10/10 08:06:35;;;;;;;25.42;16.98;;;;;;;17.85;52.11;95636.31;5071547;28;20031;-73
2022/10/10 08:09:01;;;;;;;20.73;13.15;;;;;;;17.83;52.05;95633.03;5070805;28;20043;-73
2022/10/10 08:11:26;;;;;;;19.58;14.20;;;;;;;17.77;52.41;95643.25;5070352;28;20028;-73
2022/10/10 08:13:52;;;;;;;17.33;13.07;;;;;;;17.90;52.04;95632.41;5070588;28;20502;-73
2022/10/10 08:16:17;;;;;;;21.58;13.27;;;;;;;17.98;51.58;95637.72;5070165;28;20067;-73
2022/10/10 08:18:43;;;;;;;21.10;12.35;;;;;;;18.04;51.56;95627.41;5070496;28;20040;-73
2022/10/10 08:21:10;;;;;;;14.98;10.65;;;;;;;18.08;51.47;95635.84;5053805;28;20150;-73
2022/10/10 08:23:35;;;;;;;16.42;8.95;;;;;;;18.13;51.03;95638.81;5070399;28;20314;-73
2022/10/10 08:26:02;;;;;;;10.82;8.85;;;;;;;18.20;50.96;95636.41;5036801;28;20032;-73
2022/10/10 08:28:27;;;;;;;21.75;14.48;;;;;;;18.29;50.60;95646.81;5053712;28;20111;-73
2022/10/10 08:30:53;;;;;;;17.98;13.07;;;;;;;18.26;49.90;95635.78;5069916;28;20516;-73
2022/10/10 08:33:18;;;;;;;13.05;10.20;;;;;;;18.24;49.46;95638.56;5036897;28;20036;-73
2022/10/10 08:35:44;;;;;;;12.40;9.50;;;;;;;18.33;49.74;95628.94;5070936;28;20037;-73
2022/10/10 08:38:09;;;;;;;22.38;14.57;;;;;;;18.43;49.80;95634.91;5070062;28;20047;-73
2022/10/10 08:40:47;;;;;;;15.98;10.85;;;;;;;18.49;49.00;95630.84;5069929;28;20048;-73
2022/10/10 08:43:34;;;;;;;10.18;8.20;;;;;;;18.54;49.02;95636.47;5037109;28;20410;-73
2022/10/10 08:46:13;;;;;;;12.77;7.65;;;;;;;18.64;49.64;95637.19;5069599;28;20028;-73
2022/10/10 08:48:38;;;;;;;8.25;7.28;;;;;;;18.71;48.77;95638.19;5054158;28;20036;-73
2022/10/10 08:51:09;;;;;;;10.10;7.57;;;;;;;18.81;49.18;95637.28;5053087;28;20025;-73
2022/10/10 08:53:39;;;;;;;13.52;8.57;;;;;;;18.89;48.08;95645.22;5053469;28;20483;-72
2022/10/10 08:56:06;;;;;;;13.68;9.85;;;;;;;18.96;48.34;95640.97;5069762;28;20064;-73
2022/10/10 08:58:40;;;;;;;13.45;9.60;;;;;;;19.08;47.79;95638.84;5053134;28;20063;-73
2022/10/10 09:01:19;;;;;;;17.63;11.88;;;;;;;19.14;47.13;95636.44;5069631;28;20028;-73
2022/10/10 09:03:52;;;;;;;23.13;17.10;;;;;;;19.24;47.41;95635.47;5037018;28;20122;-73
2022/10/10 09:06:29;;;;;;;22.02;16.83;;;;;;;19.32;47.38;95635.47;5053688;28;20048;-73
2022/10/10 09:09:26;;;;;;;9.57;6.57;;;;;;;19.39;46.20;95641.78;5071335;28;20040;-73
2022/10/10 09:12:25;;;;;;;6.70;5.90;;;;;;;19.47;45.43;95639.13;5054304;28;20061;-73
2022/10/10 09:15:09;;;;;;;6.78;5.53;;;;;;;19.47;45.36;95631.22;5070832;28;20025;-73
2022/10/10 09:17:36;;;;;;;6.55;5.18;;;;;;;19.42;44.34;95649.34;5070904;28;20453;-73
2022/10/10 09:20:05;;;;;;;7.63;5.95;;;;;;;19.19;44.95;95651.72;5053019;28;20024;-73
2022/10/10 09:22:32;;;;;;;8.57;6.38;;;;;;;19.04;46.40;95648.88;5070986;28;20064;-73
2022/10/10 09:25:02;;;;;;;7.40;5.57;;;;;;;19.09;45.27;95651.88;5052913;28;20042;-73
2022/10/10 09:27:31;;;;;;;10.18;5.75;;;;;;;19.04;45.73;95650.72;5052891;28;20106;-73
2022/10/10 09:30:04;;;;;;;7.22;5.20;;;;;;;19.06;45.81;95652.19;5052948;28;20021;-73
2022/10/10 09:32:41;;;;;;;5.85;5.22;;;;;;;19.11;45.19;95654.34;5053415;28;20037;-73
2022/10/10 09:35:26;;;;;;;5.65;5.15;;;;;;;19.10;45.23;95653.50;5054062;28;20032;-73
2022/10/10 09:38:35;;;;;;;6.10;5.10;;;;;;;19.10;45.33;95653.50;5052790;28;20139;-73
2022/10/10 09:41:04;;;;;;;6.20;5.60;;;;;;;18.96;45.23;95656.75;5062674;28;20040;-73
2022/10/10 09:43:32;;;;;;;7.15;5.45;;;;;;;18.97;45.49;95666.28;5053172;28;20043;-73
2022/10/10 09:45:57;;;;;;;9.48;5.93;;;;;;;18.98;46.29;95660.06;5052497;28;20553;-73
2022/10/10 09:48:28;;;;;;;5.97;5.35;;;;;;;19.05;45.97;95661.06;5052387;28;20036;-73
2022/10/10 09:50:53;;;;;;;;;;;;;;;19.13;45.26;95657.63;5053095;28;20029;-74
2022/10/10 09:53:19;;;;;;;7.25;5.18;;;;;;;19.14;45.46;95651.41;5070694;28;19924;-73
2022/10/10 09:55:45;;;;;;;8.40;5.75;;;;;;;19.16;45.51;95652.88;5069120;28;20479;-73
2022/10/10 09:58:32;;;;;;;7.63;5.32;;;;;;;19.26;45.61;95663.28;5070168;28;20032;-73
2022/10/10 10:01:13;;;;;;;6.20;5.07;;;;;;;19.31;45.17;95649.66;5057391;28;20473;-73
2022/10/10 10:03:39;;;;;;;6.45;5.60;;;;;;;19.32;45.56;95652.09;5074102;28;20040;-73
2022/10/10 10:06:04;;;;;;;5.93;5.20;;;;;;;19.31;44.84;95649.66;5056167;28;20571;-73
2022/10/10 10:08:35;;;;;;;6.47;5.28;;;;;;;19.30;45.09;95638.25;5072847;28;20055;-73
2022/10/10 10:11:04;;;;;;;11.43;5.80;;;;;;;19.36;45.23;95642.06;5055953;28;20025;-73
2022/10/10 10:13:34;;;;;;;6.05;5.20;;;;;;;19.34;44.94;95639.59;5056650;28;20037;-73
2022/10/10 10:16:05;;;;;;;6.78;5.50;;;;;;;19.28;45.11;95635.00;5072588;28;20089;-73
2022/10/10 10:18:31;;;;;;;6.63;5.43;;;;;;;19.37;45.48;95641.09;5072576;28;20029;-73
2022/10/10 10:21:11;;;;;;;5.65;5.07;;;;;;;19.40;45.05;95636.31;5072502;28;20105;-73
2022/10/10 10:24:09;;;;;;;7.17;5.50;;;;;;;19.29;44.86;95641.06;5072744;28;20483;-73
2022/10/10 10:26:42;;;;;;;8.65;5.65;;;;;;;19.38;45.01;95635.66;5057027;28;20044;-73
2022/10/10 10:29:27;;;;;;;6.95;5.35;;;;;;;19.40;45.18;95638.13;5073849;28;20036;-73
2022/10/10 10:32:03;;;;;;;7.53;5.82;;;;;;;19.42;45.09;95625.63;5072375;28;20400;-73
2022/10/10 10:34:32;;;;;;;6.88;5.22;;;;;;;19.47;45.22;95633.03;5055967;28;20048;-73
2022/10/10 10:37:13;;;;;;;8.40;5.20;;;;;;;19.45;44.62;95624.50;5073459;28;20056;-73
2022/10/10 10:40:11;;;;;;;9.65;5.70;;;;;;;19.47;44.85;95633.84;5072226;28;20036;-73
2022/10/10 10:43:01;;;;;;;7.45;5.90;;;;;;;19.45;45.43;95629.75;5069138;28;20567;-73
2022/10/10 10:45:38;;;;;;;7.50;5.25;;;;;;;19.47;44.91;95633.03;5073337;28;20024;-73
2022/10/10 10:48:16;;;;;;;5.97;5.18;;;;;;;19.40;44.97;95627.59;5073502;28;20048;-73
2022/10/10 10:50:47;;;;;;;6.35;5.30;;;;;;;19.42;45.19;95625.63;5055295;28;20035;-73
2022/10/10 10:53:34;;;;;;;6.43;5.30;;;;;;;19.45;44.49;95625.31;5073097;28;20036;-73
2022/10/10 10:56:02;;;;;;;7.80;5.90;;;;;;;19.37;44.58;95627.94;5073154;28;20074;-73
2022/10/10 10:58:53;;;;;;;8.10;5.43;;;;;;;19.42;45.31;95620.38;5073506;28;20064;-73
2022/10/10 11:01:30;;;;;;;6.65;4.97;;;;;;;19.32;44.54;95622.31;5055051;28;20078;-73
2022/10/10 11:04:20;;;;;;;7.18;5.60;;;;;;;19.27;44.97;95621.97;5073583;28;20033;-73
2022/10/10 11:06:48;;;;;;;6.38;5.53;;;;;;;19.20;45.51;95619.97;5072821;28;20028;-73
2022/10/10 11:09:21;;;;;;;9.07;5.32;;;;;;;19.19;44.90;95607.81;5072890;28;20593;-73
2022/10/10 11:12:08;;;;;;;7.00;5.30;;;;;;;19.20;45.23;95601.53;5071640;28;20029;-73
2022/10/10 11:14:54;;;;;;;8.15;5.03;;;;;;;19.15;45.10;95592.47;5071587;28;20036;-73
2022/10/10 11:17:28;;;;;;;6.85;5.78;;;;;;;19.15;45.72;95592.47;5056433;28;20036;-73
2022/10/10 11:20:19;;;;;;;6.63;5.35;;;;;;;19.20;46.03;95596.28;5071669;28;20032;-73
2022/10/10 11:22:48;;;;;;;6.03;4.90;;;;;;;19.18;45.25;95582.44;5066774;28;20054;-73
2022/10/10 11:25:44;;;;;;;7.03;5.30;;;;;;;19.09;44.73;95578.16;5054880;28;20529;-73
2022/10/10 11:28:34;;;;;;;6.22;5.55;;;;;;;19.18;45.60;95587.72;5039513;28;20060;-73
2022/10/10 11:31:02;;;;;;;5.88;5.28;;;;;;;19.21;45.04;95589.19;5066127;28;20292;-73